Main page
METAR-TAF:

METAR-TAF

Airports :

Wuhan Tianhe International Airport

Wuhan, China

latitude: 30-37N, longitude: 114-08E, elevation: 23 m

Current weather observation

The report was made 51 minutes ago, at 17:00 UTC
Wind 4 kt from the East/Southeast, varying between Northeast and Southeast
Temperature 6°C
Humidity 75%
Pressure 1032 hPa
Visibility: 4500 m
mist

METAR: ZHHH 061700Z 11002MPS 050V130 4500 BR NSC 06/02 Q1032 NOSIG

Time: 01:51 (17:51 UTC)

Forecast

The report was made 3 hours and 17 minutes ago, at 14:34 UTC
Forecast valid from 06 at 18 UTC to 07 at 18 UTC
Wind 6 kt from the East/Northeast
Visibility: 3000 m
mist

TAF: ZHHH 061434Z 0618/0718 06003MPS 3000 BR NSC TX14/0706Z TN01/0622Z

Weather observations and forecasts of more than 4000 airports (METAR and TAF reports).

The available stations are represented by yellow and red dots on the map.

Hover mouse over dot to see the name of the station.

Then click to see weather observations and forecasts.

To change the map : click on the green buttons with a black cross to zoom in, on the green button with a dash to zoom out, or on the green arrows for adjacent maps.


METAR-TAF: